Time;durP1;ratioP1;P1;durP2;ratioP2;P2;SDS_P1;SDS_P2;PMS_P1;PMS_P2;Temp;Humidity;BMP_temperature;BMP_pressure;BME280_temperature;BME280_humidity;BME280_pressure;Samples;Min_cycle;Max_cycle;Signal;HPM_P1;HPM_P2
2022/05/12 00:00:18;;;;;;;7.28;3.70;;;16.30;92.20;;;;;;4952406;28;20700;-65
2022/05/12 00:02:45;;;;;;;3.95;3.55;;;16.30;92.90;;;;;;4968997;28;20145;-65
2022/05/12 00:05:13;;;;;;;4.90;3.83;;;16.30;93.10;;;;;;4952126;28;20113;-65
2022/05/12 00:07:41;;;;;;;6.00;4.20;;;16.30;93.60;;;;;;4964058;28;20044;-66
2022/05/12 00:10:10;;;;;;;5.35;3.70;;;16.30;94.60;;;;;;4954277;28;20041;-65
2022/05/12 00:12:38;;;;;;;3.63;3.33;;;16.30;95.10;;;;;;4952134;28;20045;-65
2022/05/12 00:15:08;;;;;;;4.80;3.28;;;16.30;95.10;;;;;;4967298;28;20669;-65
2022/05/12 00:17:36;;;;;;;5.53;3.95;;;16.20;95.70;;;;;;4952079;28;20066;-65
2022/05/12 00:20:05;;;;;;;14.30;4.28;;;16.20;96.10;;;;;;4949214;28;20091;-65
2022/05/12 00:22:32;;;;;;;10.35;4.10;;;16.20;96.60;;;;;;4954025;28;20303;-65
2022/05/12 00:24:59;;;;;;;4.72;3.63;;;16.10;97.00;;;;;;4950797;28;20042;-66
2022/05/12 00:27:26;;;;;;;5.38;3.72;;;16.10;96.60;;;;;;4953226;28;20461;-66
2022/05/12 00:29:53;;;;;;;7.72;4.35;;;16.10;96.40;;;;;;4952036;28;20038;-64
2022/05/12 00:32:20;;;;;;;6.35;4.35;;;16.10;96.60;;;;;;4951733;28;20042;-65
2022/05/12 00:34:47;;;;;;;5.75;3.90;;;16.10;97.50;;;;;;4951416;28;20129;-65
2022/05/12 00:37:14;;;;;;;4.38;3.90;;;16.10;97.70;;;;;;4968224;28;20606;-65
2022/05/12 00:39:41;;;;;;;5.10;4.10;;;16.10;99.10;;;;;;4950276;28;20065;-65
2022/05/12 00:42:08;;;;;;;7.15;3.58;;;16.10;99.40;;;;;;4953210;28;20332;-65
2022/05/12 00:44:36;;;;;;;6.35;3.92;;;16.10;99.10;;;;;;4969264;28;20057;-65
2022/05/12 00:47:03;;;;;;;10.25;3.90;;;16.00;98.90;;;;;;4969991;28;20363;-65
2022/05/12 00:49:34;;;;;;;9.02;4.05;;;16.10;99.50;;;;;;4971111;28;20048;-65
2022/05/12 00:52:06;;;;;;;5.25;3.38;;;16.00;99.90;;;;;;4968548;28;20834;-65
2022/05/12 00:54:49;;;;;;;4.95;3.78;;;16.00;99.90;;;;;;4972537;28;20673;-65
2022/05/12 00:57:28;;;;;;;9.02;3.72;;;16.00;99.90;;;;;;4972736;28;20041;-65
2022/05/12 00:59:57;;;;;;;5.88;4.38;;;16.00;99.90;;;;;;4973239;28;20782;-65
2022/05/12 01:02:26;;;;;;;4.63;3.70;;;16.00;99.90;;;;;;4971013;28;20136;-64
2022/05/12 01:04:57;;;;;;;6.30;3.60;;;15.90;99.90;;;;;;4969534;28;20049;-65
2022/05/12 01:07:24;;;;;;;4.88;3.80;;;16.00;99.90;;;;;;4971758;28;20321;-65
2022/05/12 01:09:52;;;;;;;6.40;3.58;;;16.00;99.90;;;;;;4967840;28;20398;-65
2022/05/12 01:12:20;;;;;;;5.75;4.32;;;16.00;99.90;;;;;;4954004;28;20834;-65
2022/05/12 01:14:47;;;;;;;5.47;3.42;;;16.00;99.90;;;;;;4969929;28;20531;-65
2022/05/12 01:17:16;;;;;;;;;;;16.00;99.90;;;;;;4953808;28;20811;-65
2022/05/12 01:19:43;;;;;;;8.27;3.70;;;16.00;99.90;;;;;;4966412;28;20023;-65
2022/05/12 01:22:38;;;;;;;6.25;4.18;;;16.00;99.90;;;;;;4965854;28;20052;-64
2022/05/12 01:25:15;;;;;;;4.63;4.13;;;16.00;99.90;;;;;;4947229;28;20160;-64
2022/05/12 01:27:42;;;;;;;;;;;16.00;99.90;;;;;;4945873;28;20393;-66
2022/05/12 01:30:12;;;;;;;5.25;4.45;;;16.00;99.90;;;;;;4953558;28;20663;-65
2022/05/12 01:32:40;;;;;;;6.25;4.05;;;16.00;99.90;;;;;;4949794;28;20034;-65
2022/05/12 01:35:07;;;;;;;7.95;3.90;;;15.90;99.90;;;;;;4950981;28;20844;-65
2022/05/12 01:37:40;;;;;;;4.03;3.60;;;15.90;99.90;;;;;;4967599;28;20061;-65
2022/05/12 01:40:10;;;;;;;6.78;4.22;;;15.90;99.90;;;;;;4952412;28;20045;-65
2022/05/12 01:42:37;;;;;;;5.30;4.35;;;15.90;99.90;;;;;;4953355;28;20123;-64
2022/05/12 01:45:06;;;;;;;5.53;4.70;;;15.80;99.90;;;;;;4935620;28;20548;-65
2022/05/12 01:47:35;;;;;;;8.45;4.93;;;15.80;99.90;;;;;;4934141;28;20039;-65
2022/05/12 01:50:03;;;;;;;10.93;5.30;;;15.80;99.90;;;;;;4935309;28;20122;-65
2022/05/12 01:52:30;;;;;;;7.40;4.57;;;15.70;99.90;;;;;;4937429;28;20789;-65
2022/05/12 01:54:57;;;;;;;7.10;4.50;;;15.70;99.90;;;;;;4931683;28;20065;-65
2022/05/12 01:57:24;;;;;;;8.35;5.25;;;15.70;99.90;;;;;;4935734;28;20049;-65
2022/05/12 01:59:52;;;;;;;5.13;4.63;;;15.70;99.90;;;;;;4936459;28;20809;-65
2022/05/12 02:02:19;;;;;;;9.13;4.47;;;15.60;99.90;;;;;;4952698;28;20460;-65
2022/05/12 02:04:48;;;;;;;6.38;4.45;;;15.60;99.90;;;;;;4980736;28;20719;-65
2022/05/12 02:07:18;;;;;;;9.80;6.72;;;15.60;99.90;;;;;;4974099;28;20049;-64
2022/05/12 02:09:45;;;;;;;8.70;5.07;;;15.60;99.90;;;;;;4958828;28;20751;-64
2022/05/12 02:12:13;;;;;;;19.55;5.95;;;15.50;99.90;;;;;;4973650;28;20045;-65
2022/05/12 02:14:39;;;;;;;8.05;5.05;;;15.50;99.90;;;;;;4973184;28;20045;-64
2022/05/12 02:17:07;;;;;;;7.82;4.78;;;15.40;99.90;;;;;;4958925;28;20053;-65
2022/05/12 02:19:34;;;;;;;8.40;6.07;;;15.40;99.90;;;;;;4955391;28;20192;-65
2022/05/12 02:22:03;;;;;;;8.13;5.30;;;15.30;99.90;;;;;;4956195;28;20448;-65
2022/05/12 02:24:30;;;;;;;8.95;4.60;;;15.30;99.90;;;;;;4955081;28;20849;-65
2022/05/12 02:26:57;;;;;;;8.00;4.70;;;15.20;99.90;;;;;;4953913;28;20034;-65
2022/05/12 02:29:24;;;;;;;5.75;5.15;;;15.20;99.90;;;;;;4953507;28;20132;-65
2022/05/12 02:31:53;;;;;;;7.55;4.60;;;15.10;99.90;;;;;;4954004;28;20045;-65
2022/05/12 02:34:20;;;;;;;6.88;5.13;;;15.10;99.90;;;;;;4951458;28;20235;-65
2022/05/12 02:37:02;;;;;;;7.40;5.68;;;15.10;99.90;;;;;;4955995;28;20603;-65
2022/05/12 02:39:32;;;;;;;6.10;4.78;;;15.00;99.90;;;;;;4952560;28;20908;-65
2022/05/12 02:41:59;;;;;;;7.57;5.03;;;15.00;99.90;;;;;;4936194;28;20046;-65
2022/05/12 02:44:26;;;;;;;5.88;5.28;;;15.00;99.90;;;;;;4956364;28;20049;-65
2022/05/12 02:46:53;;;;;;;5.68;4.70;;;14.90;99.90;;;;;;4951465;28;20822;-65
2022/05/12 02:49:20;;;;;;;7.40;4.65;;;14.90;99.90;;;;;;4956088;28;20123;-64
2022/05/12 02:51:48;;;;;;;7.20;6.03;;;14.90;99.90;;;;;;4970643;28;20115;-65
2022/05/12 02:54:16;;;;;;;6.57;5.50;;;14.80;99.90;;;;;;4954587;28;20136;-65
2022/05/12 02:56:43;;;;;;;8.65;5.47;;;14.90;99.90;;;;;;4939049;28;20135;-66
2022/05/12 02:59:11;;;;;;;10.15;5.15;;;14.80;99.90;;;;;;4950222;28;20424;-65
2022/05/12 03:01:39;;;;;;;9.52;4.82;;;14.80;99.90;;;;;;4962092;28;20276;-65
2022/05/12 03:04:06;;;;;;;11.00;5.78;;;14.80;99.90;;;;;;4951134;28;20052;-65
2022/05/12 03:06:33;;;;;;;8.07;5.55;;;14.80;99.90;;;;;;4970769;28;20544;-65
2022/05/12 03:09:00;;;;;;;9.98;5.25;;;14.80;99.90;;;;;;4952546;28;20141;-65
2022/05/12 03:11:28;;;;;;;9.82;5.13;;;14.80;99.90;;;;;;4970736;28;20739;-65
2022/05/12 03:13:55;;;;;;;8.88;5.50;;;14.80;99.90;;;;;;4952282;28;20049;-65
2022/05/12 03:16:23;;;;;;;7.97;4.95;;;14.80;99.90;;;;;;4935608;28;20062;-65
2022/05/12 03:18:51;;;;;;;6.35;5.35;;;14.80;99.90;;;;;;4954978;28;20535;-65
2022/05/12 03:21:19;;;;;;;7.60;5.38;;;14.80;99.90;;;;;;4953700;28;20210;-66
2022/05/12 03:23:47;;;;;;;8.57;4.88;;;14.80;99.90;;;;;;4955163;28;20045;-65
2022/05/12 03:26:14;;;;;;;11.45;6.40;;;14.80;99.90;;;;;;4951464;28;20053;-65
2022/05/12 03:28:41;;;;;;;7.80;5.40;;;14.80;99.90;;;;;;4952010;28;20201;-65
2022/05/12 03:31:12;;;;;;;8.05;5.20;;;14.80;99.90;;;;;;4954354;28;20599;-65
2022/05/12 03:33:39;;;;;;;7.65;4.72;;;14.80;99.90;;;;;;4950349;28;20230;-65
2022/05/12 03:36:07;;;;;;;13.50;4.82;;;14.90;99.90;;;;;;4970883;28;20119;-65
2022/05/12 03:38:35;;;;;;;8.43;4.88;;;14.80;99.90;;;;;;4965749;28;20131;-65
2022/05/12 03:41:02;;;;;;;9.85;4.97;;;14.90;99.90;;;;;;4941590;28;20042;-65
2022/05/12 03:46:15;;;;;;;6.75;4.50;;;14.90;99.90;;;;;;4962502;28;20565;-65
2022/05/12 03:48:42;;;;;;;10.45;4.93;;;14.90;99.90;;;;;;4950793;28;20050;-66
2022/05/12 03:51:12;;;;;;;10.20;5.20;;;14.90;99.90;;;;;;4949171;28;20043;-65
2022/05/12 03:53:40;;;;;;;9.40;4.43;;;14.90;99.90;;;;;;4948864;28;20397;-65
2022/05/12 03:56:08;;;;;;;9.95;5.28;;;14.90;99.90;;;;;;4948957;28;20225;-66
2022/05/12 03:58:36;;;;;;;5.18;3.97;;;14.90;99.90;;;;;;4935200;28;20149;-66
2022/05/12 04:01:04;;;;;;;5.55;4.25;;;14.90;99.90;;;;;;4950419;28;20773;-65
2022/05/12 04:03:31;;;;;;;7.45;4.57;;;14.90;99.90;;;;;;4935791;28;20042;-66
2022/05/12 04:06:02;;;;;;;9.82;4.55;;;14.90;99.90;;;;;;4950097;28;20038;-66
2022/05/12 04:08:30;;;;;;;7.65;4.93;;;14.90;99.90;;;;;;4951305;28;20161;-65
2022/05/12 04:10:57;;;;;;;6.22;5.28;;;14.90;99.90;;;;;;4936965;28;20050;-65
2022/05/12 04:13:24;;;;;;;7.13;4.88;;;14.90;99.90;;;;;;4946523;28;20288;-65
2022/05/12 04:15:51;;;;;;;8.00;4.28;;;14.90;99.90;;;;;;4953097;28;20290;-65
2022/05/12 04:18:19;;;;;;;4.35;3.95;;;15.00;99.90;;;;;;4952269;28;20045;-65
2022/05/12 04:20:47;;;;;;;8.93;3.67;;;15.00;99.90;;;;;;4972329;28;20116;-66
2022/05/12 04:23:13;;;;;;;10.00;4.03;;;15.10;99.90;;;;;;4956604;28;20732;-65
2022/05/12 04:25:40;;;;;;;12.68;3.80;;;15.30;99.90;;;;;;4955419;28;20038;-65
2022/05/12 04:28:08;;;;;;;8.98;3.47;;;15.50;99.90;;;;;;4973374;28;20567;-65
2022/05/12 04:30:36;;;;;;;6.32;3.47;;;15.60;99.90;;;;;;4967209;28;20045;-67
2022/05/12 04:35:49;;;;;;;5.90;2.90;;;15.90;99.90;;;;;;4952365;28;20050;-54
2022/05/12 04:38:16;;;;;;;6.47;2.97;;;16.10;99.90;;;;;;4966406;28;20038;-53
2022/05/12 04:40:43;;;;;;;6.60;3.30;;;16.20;99.90;;;;;;4958087;28;20038;-55
2022/05/12 04:43:10;;;;;;;8.02;2.67;;;16.30;99.90;;;;;;4930384;28;20329;-53
2022/05/12 04:45:37;;;;;;;7.38;3.15;;;16.40;99.90;;;;;;4955201;28;20338;-54
2022/05/12 04:48:05;;;;;;;5.10;2.67;;;16.50;99.90;;;;;;4946935;28;20044;-53
2022/05/12 04:50:35;;;;;;;10.85;2.70;;;16.60;99.90;;;;;;4949293;28;20322;-53
2022/05/12 04:53:03;;;;;;;6.35;2.90;;;16.70;99.90;;;;;;4949960;28;20589;-53
2022/05/12 04:55:33;;;;;;;7.78;2.63;;;16.70;99.90;;;;;;4950955;28;20034;-52
2022/05/12 04:58:00;;;;;;;6.38;2.28;;;16.80;99.90;;;;;;4946436;28;20551;-52
2022/05/12 05:00:30;;;;;;;6.78;2.58;;;16.90;99.90;;;;;;4948990;28;20084;-54
2022/05/12 05:02:58;;;;;;;9.43;2.88;;;17.00;99.90;;;;;;4949111;28;20050;-54
2022/05/12 05:05:26;;;;;;;3.38;2.45;;;17.00;99.90;;;;;;4950008;28;20744;-53
2022/05/12 05:07:54;;;;;;;3.50;2.40;;;17.10;99.90;;;;;;4955969;28;20634;-53
2022/05/12 05:10:21;;;;;;;5.47;2.42;;;17.20;99.90;;;;;;4931989;28;20061;-53
2022/05/12 05:12:49;;;;;;;9.50;2.55;;;17.20;99.90;;;;;;4935115;28;20038;-56
2022/05/12 05:15:16;;;;;;;8.80;2.60;;;17.40;99.90;;;;;;4932935;28;20842;-53
2022/05/12 05:17:44;;;;;;;8.63;2.38;;;17.50;99.10;;;;;;4948803;28;20147;-56
2022/05/12 05:20:16;;;;;;;10.27;3.72;;;17.60;97.70;;;;;;4952075;28;20462;-60
2022/05/12 05:22:45;;;;;;;6.07;2.53;;;17.80;96.50;;;;;;4938117;28;20835;-62
2022/05/12 05:25:14;;;;;;;7.97;2.53;;;17.90;95.50;;;;;;4955253;28;20057;-61
2022/05/12 05:27:42;;;;;;;4.28;2.53;;;18.10;95.30;;;;;;4954152;28;20128;-60
2022/05/12 05:30:12;;;;;;;4.97;2.65;;;18.10;94.50;;;;;;4937598;28;20041;-57
2022/05/12 05:32:39;;;;;;;3.90;2.30;;;18.20;93.00;;;;;;4951959;28;20045;-60
2022/05/12 05:35:07;;;;;;;6.57;2.58;;;18.30;93.00;;;;;;4955972;28;20042;-58
2022/05/12 05:37:36;;;;;;;8.60;2.78;;;18.30;90.90;;;;;;4954339;28;20168;-58
2022/05/12 05:40:05;;;;;;;9.85;3.25;;;18.40;88.70;;;;;;4941780;28;20373;-57
2022/05/12 05:42:33;;;;;;;7.47;2.28;;;18.50;87.20;;;;;;4951665;28;20602;-58
2022/05/12 05:45:00;;;;;;;7.68;2.83;;;18.60;86.00;;;;;;4919264;28;20034;-57
2022/05/12 05:47:28;;;;;;;3.90;2.28;;;18.70;83.60;;;;;;4943255;28;20049;-58
2022/05/12 05:49:55;;;;;;;12.40;3.20;;;18.80;83.10;;;;;;4954229;28;20127;-59
2022/05/12 05:55:08;;;;;;;5.45;2.42;;;18.80;81.70;;;;;;4952970;28;20054;-59
2022/05/12 05:57:36;;;;;;;5.65;2.53;;;18.80;81.00;;;;;;4951841;28;20041;-62
2022/05/12 06:00:05;;;;;;;9.75;2.28;;;18.80;80.30;;;;;;4953538;28;20042;-58
2022/05/12 06:02:33;;;;;;;5.25;2.30;;;18.80;80.50;;;;;;4953054;28;20132;-58
2022/05/12 06:05:00;;;;;;;4.53;1.65;;;18.80;79.20;;;;;;4953759;28;20156;-57
2022/05/12 06:07:28;;;;;;;6.35;2.38;;;18.80;80.50;;;;;;4954690;28;20174;-59
2022/05/12 06:09:55;;;;;;;4.93;2.28;;;18.80;81.20;;;;;;4969974;28;20548;-57
2022/05/12 06:12:22;;;;;;;5.68;2.13;;;18.80;80.40;;;;;;4951892;28;20041;-56
2022/05/12 06:14:50;;;;;;;6.95;2.50;;;18.70;80.10;;;;;;4970219;28;20349;-57
2022/05/12 06:17:17;;;;;;;10.23;2.58;;;18.80;80.80;;;;;;4930772;28;20199;-56
2022/05/12 06:19:44;;;;;;;13.57;2.40;;;18.80;80.50;;;;;;4969831;28;20286;-58
2022/05/12 06:22:12;;;;;;;3.75;2.13;;;18.80;79.90;;;;;;4969733;28;20046;-57
2022/05/12 06:24:39;;;;;;;6.60;2.08;;;18.80;79.70;;;;;;4951537;28;20461;-59
2022/05/12 06:27:06;;;;;;;3.92;1.75;;;18.80;79.40;;;;;;4955186;28;20313;-58
2022/05/12 06:29:33;;;;;;;7.97;2.78;;;18.90;78.00;;;;;;4952497;28;20500;-60
2022/05/12 06:32:01;;;;;;;7.30;2.65;;;18.90;78.20;;;;;;4938741;28;20049;-59
2022/05/12 06:34:29;;;;;;;3.03;1.85;;;19.00;76.80;;;;;;4952123;28;20038;-58
2022/05/12 06:36:59;;;;;;;6.00;2.45;;;19.00;76.30;;;;;;4954310;28;20564;-59
2022/05/12 06:39:26;;;;;;;3.92;2.22;;;19.10;76.10;;;;;;4951035;28;20374;-55
2022/05/12 06:41:53;;;;;;;5.55;3.40;;;19.10;76.50;;;;;;4952287;28;20309;-54
2022/05/12 06:44:25;;;;;;;3.50;2.03;;;19.10;76.40;;;;;;4954141;28;20045;-55
2022/05/12 06:46:52;;;;;;;5.35;2.33;;;19.00;73.90;;;;;;4949668;28;20373;-55
2022/05/12 06:49:20;;;;;;;3.13;2.22;;;19.10;75.80;;;;;;4938086;28;20203;-54
2022/05/12 06:51:47;;;;;;;3.88;2.25;;;19.00;75.50;;;;;;4966398;28;20549;-59
2022/05/12 06:54:15;;;;;;;6.82;2.60;;;19.00;73.30;;;;;;4969863;28;20038;-55
2022/05/12 06:56:42;;;;;;;5.45;2.00;;;19.00;73.70;;;;;;4968330;28;20196;-59
2022/05/12 06:59:09;;;;;;;6.18;2.05;;;19.00;73.70;;;;;;4970544;28;20041;-57
2022/05/12 07:01:37;;;;;;;3.47;1.90;;;19.10;73.40;;;;;;4970310;28;20188;-59
2022/05/12 07:04:04;;;;;;;7.82;1.92;;;19.30;71.40;;;;;;4967945;28;20823;-57
2022/05/12 07:06:32;;;;;;;8.85;2.60;;;19.40;71.40;;;;;;4937501;28;20343;-57
2022/05/12 07:08:59;;;;;;;7.43;2.20;;;19.50;68.70;;;;;;4927704;28;20054;-60
2022/05/12 07:11:26;;;;;;;4.07;1.70;;;19.50;71.00;;;;;;4933754;28;20118;-58
2022/05/12 07:13:53;;;;;;;6.22;1.95;;;19.60;68.60;;;;;;4932736;28;20104;-59
2022/05/12 07:16:20;;;;;;;4.07;2.10;;;19.80;68.10;;;;;;4939095;28;20030;-59
2022/05/12 07:18:49;;;;;;;3.05;1.75;;;19.90;68.50;;;;;;4953701;28;20762;-58
2022/05/12 07:26:51;;;;;;;4.90;2.10;;;20.10;65.10;;;;;;4952521;28;20038;-59
2022/05/12 07:29:25;;;;;;;2.63;1.90;;;20.10;65.20;;;;;;4969555;28;20940;-58
2022/05/12 07:31:53;;;;;;;4.80;1.67;;;20.10;62.80;;;;;;4967512;28;20125;-51
2022/05/12 07:34:21;;;;;;;4.43;1.88;;;20.20;63.30;;;;;;4952700;28;20030;-57
2022/05/12 07:36:51;;;;;;;7.82;2.10;;;20.30;65.20;;;;;;4953479;28;20045;-57
2022/05/12 07:39:22;;;;;;;3.47;2.13;;;20.40;64.90;;;;;;4959316;28;20049;-55
2022/05/12 07:41:50;;;;;;;4.50;2.67;;;20.50;65.00;;;;;;4956147;28;20195;-57
2022/05/12 07:44:19;;;;;;;4.10;2.10;;;20.70;63.70;;;;;;4947638;28;20161;-63
2022/05/12 07:46:48;;;;;;;6.25;2.20;;;20.90;62.90;;;;;;4950829;28;20042;-62
2022/05/12 07:49:15;;;;;;;4.95;1.95;;;21.00;61.40;;;;;;4959133;28;20046;-62
2022/05/12 07:51:48;;;;;;;4.35;2.20;;;21.10;61.50;;;;;;4952411;28;20625;-62
2022/05/12 07:54:15;;;;;;;2.65;1.92;;;21.30;60.70;;;;;;4967917;28;20381;-61
2022/05/12 07:56:42;;;;;;;6.13;2.10;;;21.40;59.00;;;;;;4955077;28;20045;-60
2022/05/12 07:59:09;;;;;;;5.20;1.77;;;21.50;58.30;;;;;;4951980;28;20563;-56
2022/05/12 08:01:38;;;;;;;8.52;1.80;;;21.60;59.40;;;;;;4951601;28;20131;-58
2022/05/12 08:04:05;;;;;;;2.47;1.38;;;21.90;58.40;;;;;;4952854;28;20049;-59
2022/05/12 08:06:33;;;;;;;4.47;1.80;;;22.20;58.50;;;;;;4948147;28;20111;-59
2022/05/12 08:09:01;;;;;;;11.18;2.55;;;22.50;57.00;;;;;;4949109;28;20049;-57
2022/05/12 08:11:28;;;;;;;9.63;2.08;;;22.80;55.20;;;;;;4950984;28;20045;-58
2022/05/12 08:13:57;;;;;;;4.30;2.17;;;23.00;53.30;;;;;;4966495;28;20045;-58
2022/05/12 08:16:24;;;;;;;4.78;2.15;;;23.20;54.40;;;;;;4952393;28;20136;-58
2022/05/12 08:18:52;;;;;;;4.90;2.75;;;23.40;54.40;;;;;;4952411;28;20038;-57
2022/05/12 08:21:23;;;;;;;7.57;2.10;;;23.50;53.00;;;;;;4951820;28;20617;-59
2022/05/12 08:23:52;;;;;;;5.28;2.15;;;23.60;52.20;;;;;;4952244;28;20034;-57
2022/05/12 08:26:19;;;;;;;5.80;2.40;;;23.80;52.20;;;;;;4949094;28;20109;-58
2022/05/12 08:28:50;;;;;;;8.25;2.10;;;23.80;51.60;;;;;;4946859;28;20389;-58
2022/05/12 08:31:21;;;;;;;3.47;2.28;;;23.80;51.50;;;;;;4966930;28;20042;-57
2022/05/12 08:33:49;;;;;;;3.00;1.85;;;23.90;51.30;;;;;;4948005;28;20281;-60
2022/05/12 08:36:16;;;;;;;6.55;1.77;;;24.10;51.70;;;;;;4935245;28;20062;-60
2022/05/12 08:38:44;;;;;;;5.43;1.95;;;24.30;51.10;;;;;;4945399;28;20350;-60
2022/05/12 08:41:20;;;;;;;5.60;2.70;;;24.50;51.20;;;;;;4941711;28;20069;-60
2022/05/12 08:44:02;;;;;;;5.20;2.13;;;24.60;50.40;;;;;;4950437;28;20042;-60
2022/05/12 08:46:43;;;;;;;7.38;3.05;;;24.80;48.50;;;;;;4947870;28;20880;-60
2022/05/12 08:49:19;;;;;;;2.95;1.98;;;24.80;49.10;;;;;;4949437;28;20045;-60
2022/05/12 08:51:49;;;;;;;7.30;2.35;;;24.80;48.90;;;;;;4947370;28;20195;-61
2022/05/12 08:54:21;;;;;;;3.28;1.80;;;24.80;48.90;;;;;;4964911;28;20038;-61
2022/05/12 08:56:55;;;;;;;4.90;1.80;;;24.80;49.60;;;;;;4945475;28;20467;-61
2022/05/12 08:59:23;;;;;;;7.45;2.20;;;24.80;48.00;;;;;;4965393;28;20042;-60
2022/05/12 09:02:36;;;;;;;2.88;1.90;;;24.90;49.10;;;;;;4951103;28;20038;-61
2022/05/12 09:05:07;;;;;;;7.72;2.13;;;25.20;49.30;;;;;;4965799;28;20075;-60
2022/05/12 09:07:50;;;;;;;5.13;1.98;;;25.40;47.50;;;;;;4965159;28;20050;-61
2022/05/12 09:10:36;;;;;;;3.70;1.67;;;25.60;49.50;;;;;;4950492;28;20061;-61
2022/05/12 09:13:20;;;;;;;4.75;2.05;;;25.80;47.70;;;;;;4950552;28;20921;-60
2022/05/12 09:16:04;;;;;;;2.95;1.52;;;25.90;45.40;;;;;;4949834;28;20048;-59
2022/05/12 09:18:34;;;;;;;6.75;2.28;;;26.00;45.40;;;;;;4929402;28;20231;-61
2022/05/12 09:21:05;;;;;;;6.25;1.98;;;25.90;45.90;;;;;;4911996;28;20038;-61
2022/05/12 09:23:32;;;;;;;2.72;1.80;;;25.70;44.90;;;;;;4945036;28;20112;-63
2022/05/12 09:26:00;;;;;;;5.25;2.00;;;25.70;46.50;;;;;;4913060;28;20073;-61
2022/05/12 09:28:36;;;;;;;5.03;2.45;;;25.80;44.30;;;;;;4946228;28;20571;-66
2022/05/12 09:31:12;;;;;;;8.27;1.90;;;25.60;45.20;;;;;;4946169;28;20537;-55
2022/05/12 09:33:44;;;;;;;3.95;1.70;;;25.60;47.10;;;;;;4943885;28;20308;-65
2022/05/12 09:36:42;;;;;;;6.18;2.13;;;25.70;45.80;;;;;;4928288;28;20042;-59
2022/05/12 09:39:10;;;;;;;4.03;1.77;;;25.80;44.70;;;;;;4941302;28;20054;-59
2022/05/12 09:41:43;;;;;;;6.65;1.98;;;26.10;46.70;;;;;;4935093;28;20378;-59
2022/05/12 09:44:23;;;;;;;3.88;1.70;;;26.40;46.60;;;;;;4911341;28;20050;-59
2022/05/12 09:47:07;;;;;;;5.57;2.10;;;26.40;45.90;;;;;;4916241;28;20044;-59
2022/05/12 09:49:38;;;;;;;6.22;2.33;;;26.40;43.70;;;;;;4931080;28;20338;-58
2022/05/12 09:52:27;;;;;;;2.92;2.00;;;26.40;45.40;;;;;;4929070;28;20788;-63
2022/05/12 09:55:13;;;;;;;6.60;2.33;;;26.40;45.10;;;;;;4929075;28;20964;-59
2022/05/12 09:57:53;;;;;;;4.45;2.20;;;26.50;46.10;;;;;;4912893;28;20836;-60
2022/05/12 10:00:41;;;;;;;5.20;2.40;;;26.60;45.40;;;;;;4914925;28;20046;-59
2022/05/12 10:09:06;;;;;;;5.13;1.90;;;26.60;43.10;;;;;;4932205;28;20052;-63
2022/05/12 10:11:55;;;;;;;3.83;2.00;;;26.40;43.40;;;;;;4934157;28;20405;-62
2022/05/12 10:14:33;;;;;;;4.70;2.30;;;26.40;45.60;;;;;;4934863;28;20108;-61
2022/05/12 10:17:05;;;;;;;4.55;2.60;;;26.70;47.10;;;;;;4945369;28;20124;-61
2022/05/12 10:19:34;;;;;;;5.43;2.35;;;26.90;43.80;;;;;;4970373;28;20779;-61
2022/05/12 10:22:18;;;;;;;10.25;2.50;;;26.90;43.20;;;;;;4951486;28;20065;-61
2022/05/12 10:24:53;;;;;;;5.75;2.20;;;27.10;46.90;;;;;;4953018;28;20105;-60
2022/05/12 10:27:29;;;;;;;3.78;2.13;;;27.30;47.10;;;;;;4951980;28;20552;-61
2022/05/12 10:30:34;;;;;;;6.45;2.58;;;27.60;44.20;;;;;;4970169;28;20602;-60
2022/05/12 10:33:28;;;;;;;3.08;2.63;;;27.80;42.50;;;;;;4915481;28;20209;-60
2022/05/12 10:36:19;;;;;;;7.18;2.63;;;27.70;43.50;;;;;;4969282;28;20818;-61
2022/05/12 10:38:55;;;;;;;4.25;2.13;;;27.80;43.00;;;;;;4949247;28;20358;-62
2022/05/12 10:41:29;;;;;;;3.47;2.33;;;27.90;43.00;;;;;;4958047;28;20161;-62
2022/05/12 10:44:14;;;;;;;3.85;2.22;;;27.90;42.20;;;;;;4930690;28;20104;-61
2022/05/12 10:47:00;;;;;;;7.43;1.95;;;27.80;42.70;;;;;;4930690;28;20757;-62
2022/05/12 10:49:36;;;;;;;3.03;1.85;;;27.80;42.10;;;;;;4918418;28;20338;-58
2022/05/12 10:52:43;;;;;;;3.63;2.40;;;27.70;42.50;;;;;;4951232;28;20730;-59
2022/05/12 10:55:39;;;;;;;4.45;2.10;;;27.90;43.40;;;;;;4951015;28;20921;-59
2022/05/12 10:58:26;;;;;;;4.30;2.25;;;28.00;44.40;;;;;;4926764;28;20046;-55
2022/05/12 11:01:15;;;;;;;8.25;2.15;;;28.20;42.80;;;;;;4954544;28;20360;-58
2022/05/12 11:04:01;;;;;;;6.45;2.25;;;28.40;42.00;;;;;;4952086;28;20290;-56
2022/05/12 11:06:35;;;;;;;3.95;2.10;;;28.30;40.50;;;;;;4950990;28;20160;-56
2022/05/12 11:09:19;;;;;;;6.32;2.13;;;28.30;45.60;;;;;;4951079;28;20034;-62
2022/05/12 11:11:50;;;;;;;5.43;2.90;;;28.50;43.90;;;;;;4953691;28;20337;-62
2022/05/12 11:14:31;;;;;;;6.07;2.40;;;28.60;43.00;;;;;;4952224;28;20839;-59
2022/05/12 11:17:25;;;;;;;7.70;2.58;;;28.60;41.30;;;;;;4934632;28;20049;-60
2022/05/12 11:20:03;;;;;;;6.95;2.00;;;28.60;41.90;;;;;;4952747;28;20946;-61
2022/05/12 11:22:39;;;;;;;4.10;2.13;;;28.50;42.00;;;;;;4952759;28;20135;-61
2022/05/12 11:25:25;;;;;;;5.57;3.17;;;28.40;42.80;;;;;;4951642;28;20046;-60
2022/05/12 11:31:21;;;;;;;7.47;2.67;;;28.70;41.80;;;;;;4951154;28;20157;-60
2022/05/12 11:33:53;;;;;;;5.55;2.50;;;28.70;41.50;;;;;;4934276;28;20049;-60
2022/05/12 11:36:20;;;;;;;7.13;2.58;;;28.70;41.70;;;;;;4951181;28;20152;-60
2022/05/12 11:38:53;;;;;;;5.63;2.95;;;28.50;42.40;;;;;;4950931;28;20195;-60
2022/05/12 11:41:19;;;;;;;5.45;2.10;;;28.40;42.90;;;;;;4938685;28;20564;-60
2022/05/12 11:47:04;;;;;;;7.25;2.15;;;28.30;41.80;;;;;;4928779;28;20057;-60
2022/05/12 11:50:14;;;;;;;4.40;2.15;;;28.20;42.00;;;;;;4912023;28;20357;-60
2022/05/12 11:52:58;;;;;;;6.38;3.17;;;28.30;42.00;;;;;;4941621;28;20549;-60
2022/05/12 11:55:25;;;;;;;10.90;2.75;;;28.50;42.00;;;;;;4944413;28;20050;-61
2022/05/12 11:58:13;;;;;;;4.32;2.22;;;28.70;41.90;;;;;;4946145;28;20133;-61
2022/05/12 12:00:41;;;;;;;3.72;2.55;;;28.90;43.60;;;;;;4947311;28;20202;-60
2022/05/12 12:03:22;;;;;;;9.15;2.58;;;29.20;45.50;;;;;;4949257;28;20594;-61
2022/05/12 12:05:49;;;;;;;5.93;2.20;;;29.50;43.00;;;;;;4929462;28;20041;-61
2022/05/12 12:08:31;;;;;;;5.75;2.58;;;29.70;43.20;;;;;;4946220;28;20441;-61
2022/05/12 12:11:14;;;;;;;6.18;2.47;;;29.90;43.50;;;;;;4946785;28;20053;-61
2022/05/12 12:13:51;;;;;;;6.90;2.85;;;30.10;43.40;;;;;;4947023;28;20179;-61
2022/05/12 12:17:04;;;;;;;5.63;2.17;;;30.20;44.40;;;;;;4935227;28;20034;-65
2022/05/12 12:19:49;;;;;;;8.52;2.88;;;30.30;42.50;;;;;;4948300;28;20050;-65
2022/05/12 12:22:21;;;;;;;6.03;2.35;;;30.40;41.60;;;;;;4951519;28;20049;-66
2022/05/12 12:25:15;;;;;;;9.43;2.67;;;30.40;43.30;;;;;;4951220;28;20053;-65
2022/05/12 12:28:04;;;;;;;10.95;2.40;;;30.40;42.10;;;;;;4946736;28;20042;-64
2022/05/12 12:30:31;;;;;;;5.13;2.72;;;30.50;42.00;;;;;;4949093;28;20319;-65
2022/05/12 12:33:18;;;;;;;7.45;2.78;;;30.60;40.50;;;;;;4963745;28;20807;-65
2022/05/12 12:36:00;;;;;;;6.28;2.63;;;30.60;38.10;;;;;;4951993;28;20559;-66
2022/05/12 12:38:46;;;;;;;5.45;2.88;;;30.30;39.30;;;;;;4958700;28;20042;-67
2022/05/12 12:41:29;;;;;;;5.70;2.42;;;30.20;40.90;;;;;;4956621;28;20346;-66
2022/05/12 12:43:59;;;;;;;5.35;1.95;;;30.30;40.50;;;;;;4951029;28;20143;-65
2022/05/12 12:46:44;;;;;;;2.83;1.92;;;30.40;39.90;;;;;;4932581;28;20196;-65
2022/05/12 12:49:26;;;;;;;8.43;2.38;;;30.30;38.70;;;;;;4948048;28;20042;-66
2022/05/12 12:52:04;;;;;;;6.55;2.72;;;30.00;39.60;;;;;;4950821;28;20074;-65
2022/05/12 12:57:28;;;;;;;3.17;2.25;;;29.90;42.60;;;;;;4970030;28;20046;-66
2022/05/12 13:00:03;;;;;;;5.07;2.50;;;30.10;41.00;;;;;;4968997;28;20201;-61
2022/05/12 13:02:40;;;;;;;6.78;2.35;;;30.30;43.80;;;;;;4970276;28;20143;-61
2022/05/12 13:05:10;;;;;;;5.32;2.85;;;30.50;39.40;;;;;;4967991;28;20044;-61
2022/05/12 13:07:40;;;;;;;7.78;2.72;;;30.50;37.90;;;;;;4966529;28;20261;-61
2022/05/12 13:10:16;;;;;;;7.25;2.13;;;30.40;39.60;;;;;;4967730;28;20443;-61
2022/05/12 13:13:01;;;;;;;10.77;2.95;;;30.40;39.50;;;;;;4968269;28;20148;-61
2022/05/12 13:15:32;;;;;;;4.22;2.88;;;30.50;40.80;;;;;;4969069;28;20041;-60
2022/05/12 13:18:03;;;;;;;5.32;2.15;;;30.50;39.60;;;;;;4945861;28;20049;-60
2022/05/12 13:20:52;;;;;;;3.88;2.10;;;30.70;41.70;;;;;;4950631;28;20115;-61
2022/05/12 13:23:28;;;;;;;6.05;2.50;;;30.80;37.50;;;;;;4965431;28;20046;-65
2022/05/12 13:25:57;;;;;;;;;;;30.70;37.30;;;;;;4947440;28;20042;-66
2022/05/12 13:28:30;;;;;;;4.82;2.10;;;30.70;38.30;;;;;;4963465;28;20622;-64
2022/05/12 13:31:38;;;;;;;4.75;2.40;;;30.70;39.90;;;;;;4947682;28;20123;-63
2022/05/12 13:34:11;;;;;;;7.57;2.47;;;30.70;39.00;;;;;;4940936;28;20065;-64
2022/05/12 13:36:41;;;;;;;6.65;2.10;;;30.80;39.50;;;;;;4952285;28;20762;-61
2022/05/12 13:39:10;;;;;;;5.65;3.10;;;30.80;39.30;;;;;;4949260;28;20582;-61
2022/05/12 13:41:47;;;;;;;4.63;2.65;;;30.80;39.50;;;;;;4952194;28;20987;-61